createdAt,value
2019-02-19T00:00:05.104Z,47.27
2019-02-19T00:02:34.102Z,45.77
2019-02-19T00:05:03.501Z,48.63
2019-02-19T00:07:32.511Z,49.43
2019-02-19T00:10:01.602Z,50.47
2019-02-19T00:12:30.650Z,47.67
2019-02-19T00:15:07.703Z,49.53
2019-02-19T00:17:30.441Z,50.90
2019-02-19T00:19:59.516Z,50.23
2019-02-19T00:22:28.536Z,51.10
2019-02-19T00:24:57.581Z,50.37
2019-02-19T00:27:26.614Z,49.27
2019-02-19T00:29:55.689Z,52.20
2019-02-19T00:32:24.703Z,50.50
2019-02-19T00:34:53.771Z,48.60
2019-02-19T00:37:22.833Z,52.33
2019-02-19T00:39:51.842Z,49.37
2019-02-19T00:42:21.174Z,50.60
2019-02-19T00:44:50.237Z,50.43
2019-02-19T00:47:19.259Z,47.07
2019-02-19T00:49:48.324Z,49.37
2019-02-19T00:52:17.709Z,46.60
2019-02-19T00:54:46.760Z,47.60
2019-02-19T00:57:15.777Z,48.73
2019-02-19T00:59:45.183Z,48.63
2019-02-19T01:02:14.191Z,45.73
2019-02-19T01:04:43.255Z,46.97
2019-02-19T01:07:12.268Z,48.60
2019-02-19T01:09:41.314Z,46.10
2019-02-19T01:12:10.362Z,45.03
2019-02-19T01:14:39.539Z,45.93
2019-02-19T01:17:08.868Z,45.03
2019-02-19T01:19:37.911Z,48.00
2019-02-19T01:22:07.043Z,47.40
2019-02-19T01:24:36.410Z,45.20
2019-02-19T01:27:05.471Z,49.07
2019-02-19T01:29:34.533Z,49.03
2019-02-19T01:32:03.491Z,48.70
2019-02-19T01:34:32.517Z,48.93
2019-02-19T01:37:01.580Z,49.30
2019-02-19T01:39:30.593Z,49.43
2019-02-19T01:41:59.627Z,47.93
2019-02-19T01:44:28.686Z,50.50
2019-02-19T01:46:57.703Z,50.97
2019-02-19T01:49:26.758Z,49.33
2019-02-19T01:51:56.285Z,47.70
2019-02-19T01:54:25.323Z,52.13
2019-02-19T01:56:54.382Z,50.47
2019-02-19T01:59:23.401Z,52.73
2019-02-19T02:01:52.470Z,52.20
2019-02-19T02:04:21.530Z,52.77
2019-02-19T02:06:50.398Z,55.50
2019-02-19T02:09:19.458Z,55.07
2019-02-19T02:11:48.540Z,53.50
2019-02-19T02:14:17.562Z,54.17
2019-02-19T02:16:46.587Z,56.40
2019-02-19T02:19:15.648Z,56.23
2019-02-19T02:21:44.682Z,55.20
2019-02-19T02:24:13.782Z,57.13
2019-02-19T02:26:42.851Z,57.23
2019-02-19T02:29:11.810Z,59.73
2019-02-19T02:31:40.851Z,58.50
2019-02-19T02:34:09.934Z,58.97
2019-02-19T02:36:38.874Z,55.47
2019-02-19T02:39:08.208Z,59.23
2019-02-19T02:41:37.255Z,56.03
2019-02-19T02:44:06.624Z,55.00
2019-02-19T02:46:35.681Z,53.80
2019-02-19T02:49:04.646Z,55.30
2019-02-19T02:51:33.662Z,54.20
2019-02-19T02:54:03.033Z,54.13
2019-02-19T02:56:32.025Z,50.47
2019-02-19T02:59:01.047Z,48.83
2019-02-19T03:01:30.120Z,45.40
2019-02-19T03:03:59.126Z,49.97
2019-02-19T03:06:47.484Z,47.70
2019-02-19T03:09:16.566Z,47.40
2019-02-19T03:11:45.478Z,48.40
2019-02-19T03:14:14.540Z,48.80
2019-02-19T03:16:43.617Z,46.33
2019-02-19T03:19:12.632Z,47.87
2019-02-19T03:21:41.704Z,47.17
2019-02-19T03:24:11.072Z,47.43
2019-02-19T03:26:40.087Z,45.00
2019-02-19T03:29:09.086Z,45.20
2019-02-19T03:31:38.404Z,44.23
2019-02-19T03:34:07.471Z,41.80
2019-02-19T03:36:36.496Z,41.30
2019-02-19T03:39:05.988Z,40.20
2019-02-19T03:41:35.050Z,36.80
2019-02-19T03:44:04.070Z,37.37
2019-02-19T03:46:33.416Z,36.70
2019-02-19T03:49:02.441Z,37.40
2019-02-19T03:51:31.461Z,40.33
2019-02-19T03:54:00.620Z,40.40
2019-02-19T03:56:29.647Z,41.33
2019-02-19T03:58:59.065Z,40.90
2019-02-19T04:01:28.138Z,39.87
2019-02-19T04:03:57.218Z,41.70
2019-02-19T04:06:26.615Z,44.00
2019-02-19T04:08:55.930Z,42.20
2019-02-19T04:11:24.996Z,41.77
2019-02-19T04:13:54.051Z,39.07
2019-02-19T04:16:23.071Z,38.40
2019-02-19T04:18:52.387Z,37.40
2019-02-19T04:21:21.359Z,35.37
2019-02-19T04:23:50.358Z,34.33
2019-02-19T04:26:19.699Z,35.77
2019-02-19T04:28:48.769Z,33.40
2019-02-19T04:31:17.819Z,31.63
2019-02-19T04:33:46.874Z,32.20
2019-02-19T04:36:15.880Z,35.30
2019-02-19T04:38:44.927Z,32.30
2019-02-19T04:41:14.014Z,34.00
2019-02-19T04:43:42.982Z,32.07
2019-02-19T04:46:12.400Z,34.00
2019-02-19T04:48:41.345Z,32.60
2019-02-19T04:51:10.358Z,31.80
2019-02-19T04:53:39.402Z,32.03
2019-02-19T04:56:08.419Z,31.90
2019-02-19T04:58:37.474Z,30.80
2019-02-19T05:01:06.493Z,31.70
2019-02-19T05:03:35.571Z,30.93
2019-02-19T05:06:04.587Z,33.63
2019-02-19T05:08:33.625Z,31.43
2019-02-19T05:11:02.731Z,31.07
2019-02-19T05:13:31.674Z,32.50
2019-02-19T05:16:00.702Z,33.33
2019-02-19T05:18:29.793Z,37.17
2019-02-19T05:20:58.864Z,37.37
2019-02-19T05:23:27.875Z,36.77
2019-02-19T05:25:56.952Z,36.90
2019-02-19T05:28:25.928Z,38.00
2019-02-19T05:30:55.266Z,35.87
2019-02-19T05:33:24.250Z,36.97
2019-02-19T05:35:53.181Z,37.17
2019-02-19T05:38:22.183Z,36.00
2019-02-19T05:40:51.274Z,35.93
2019-02-19T05:43:20.330Z,36.50
2019-02-19T05:45:49.711Z,34.37
2019-02-19T05:48:18.726Z,35.67
2019-02-19T05:50:48.050Z,33.40
2019-02-19T05:53:17.466Z,34.37
2019-02-19T05:55:46.536Z,30.10
2019-02-19T05:58:15.568Z,31.07
2019-02-19T06:00:44.615Z,31.60
2019-02-19T06:03:13.971Z,30.80
2019-02-19T06:05:42.990Z,33.33
2019-02-19T06:08:12.011Z,32.13
2019-02-19T06:10:41.038Z,28.73
2019-02-19T06:13:10.390Z,30.07
2019-02-19T06:15:39.367Z,28.10
2019-02-19T06:18:08.237Z,28.23
2019-02-19T06:20:37.287Z,29.13
2019-02-19T06:23:06.310Z,27.63
2019-02-19T06:25:35.367Z,27.87
2019-02-19T06:28:04.377Z,27.43
2019-02-19T06:30:33.425Z,27.87
2019-02-19T06:33:02.403Z,26.73
2019-02-19T06:35:31.286Z,28.43
2019-02-19T06:38:00.334Z,28.00
2019-02-19T06:40:29.964Z,28.20
2019-02-19T06:42:58.970Z,27.43
2019-02-19T06:45:27.918Z,29.30
2019-02-19T06:47:56.970Z,27.87
2019-02-19T06:50:26.029Z,26.70
2019-02-19T06:52:55.050Z,27.40
2019-02-19T06:55:24.477Z,25.67
2019-02-19T06:57:53.549Z,28.07
2019-02-19T07:00:22.633Z,27.90
2019-02-19T07:02:59.756Z,25.50
2019-02-19T07:05:28.894Z,27.33
2019-02-19T07:07:57.921Z,26.47
2019-02-19T07:10:27.019Z,28.27
2019-02-19T07:12:56.039Z,26.30
2019-02-19T07:15:25.058Z,25.27
2019-02-19T07:17:54.125Z,25.87
2019-02-19T07:20:23.193Z,26.67
2019-02-19T07:22:52.280Z,24.90
2019-02-19T07:25:21.448Z,26.03
2019-02-19T07:27:50.505Z,23.90
2019-02-19T07:30:19.568Z,26.00
2019-02-19T07:32:48.631Z,24.00
2019-02-19T07:35:17.668Z,22.87
2019-02-19T07:37:47.071Z,26.07
2019-02-19T07:40:17.504Z,24.70
2019-02-19T07:42:46.585Z,24.73
2019-02-19T07:45:15.658Z,25.20
2019-02-19T07:47:44.605Z,24.70
2019-02-19T07:50:13.626Z,24.80
2019-02-19T07:52:42.533Z,23.90
2019-02-19T07:55:11.549Z,25.70
2019-02-19T07:57:42.825Z,25.13
2019-02-19T08:00:11.711Z,23.80
2019-02-19T08:02:40.737Z,24.17
2019-02-19T08:05:10.134Z,23.73
2019-02-19T08:07:39.220Z,24.87
2019-02-19T08:10:08.510Z,23.50
2019-02-19T08:12:37.616Z,23.80
2019-02-19T08:15:06.947Z,22.37
2019-02-19T08:17:36.312Z,23.87
2019-02-19T08:20:05.701Z,22.93
2019-02-19T08:22:35.086Z,22.13
2019-02-19T08:25:04.237Z,24.37
2019-02-19T08:27:33.330Z,24.23
2019-02-19T08:30:02.345Z,23.40
2019-02-19T08:32:31.351Z,22.70
2019-02-19T08:35:00.432Z,22.77
2019-02-19T08:37:29.327Z,24.00
2019-02-19T08:39:58.310Z,21.80
2019-02-19T08:42:27.340Z,22.83
2019-02-19T08:44:56.351Z,22.97
2019-02-19T08:47:25.414Z,24.27
2019-02-19T08:49:54.349Z,22.73
2019-02-19T08:52:23.363Z,22.27
2019-02-19T08:54:52.434Z,23.00
2019-02-19T08:57:21.493Z,23.17
2019-02-19T08:59:50.558Z,22.93
2019-02-19T09:02:19.574Z,22.43
2019-02-19T09:04:48.647Z,25.93
2019-02-19T09:07:17.761Z,24.60
2019-02-19T09:09:46.737Z,23.73
2019-02-19T09:12:15.728Z,23.87
2019-02-19T09:14:44.706Z,24.53
2019-02-19T09:17:13.664Z,23.27
2019-02-19T09:19:42.716Z,24.90
2019-02-19T09:22:11.652Z,23.10
2019-02-19T09:24:40.647Z,23.77
2019-02-19T09:27:09.662Z,24.13
2019-02-19T09:29:38.672Z,23.07
2019-02-19T09:32:07.955Z,22.70
2019-02-19T09:34:36.892Z,25.17
2019-02-19T09:37:05.929Z,22.83
2019-02-19T09:39:34.969Z,24.30
2019-02-19T09:42:03.995Z,24.87
2019-02-19T09:44:32.957Z,22.33
2019-02-19T09:47:05.153Z,22.40
2019-02-19T09:49:34.134Z,24.73
2019-02-19T09:52:03.124Z,22.53
2019-02-19T09:54:32.134Z,22.53
2019-02-19T09:57:01.181Z,22.30
2019-02-19T09:59:30.223Z,25.07
2019-02-19T10:01:59.279Z,22.70
2019-02-19T10:04:28.286Z,23.80
2019-02-19T10:06:57.336Z,21.57
2019-02-19T10:09:26.224Z,23.90
2019-02-19T10:11:55.349Z,21.47
2019-02-19T10:14:24.333Z,21.33
2019-02-19T10:16:53.419Z,20.33
2019-02-19T10:19:22.466Z,20.30
2019-02-19T10:21:51.473Z,22.73
2019-02-19T10:24:20.457Z,20.83
2019-02-19T10:26:49.753Z,23.87
2019-02-19T10:29:18.890Z,21.60
2019-02-19T10:31:47.941Z,22.50
2019-02-19T10:34:17.312Z,22.40
2019-02-19T10:36:46.312Z,23.43
2019-02-19T10:39:15.323Z,21.83
2019-02-19T10:41:44.341Z,23.40
2019-02-19T10:44:13.404Z,20.57
2019-02-19T10:46:42.458Z,21.70
2019-02-19T10:49:11.818Z,23.50
2019-02-19T10:51:40.884Z,21.10
2019-02-19T10:54:09.899Z,22.20
2019-02-19T10:56:38.932Z,21.93
2019-02-19T10:59:08.033Z,23.00
2019-02-19T11:01:37.369Z,21.47
2019-02-19T11:04:06.385Z,21.83
2019-02-19T11:06:35.463Z,20.67
2019-02-19T11:09:05.330Z,22.93
2019-02-19T11:11:34.338Z,20.57
2019-02-19T11:14:03.406Z,21.50
2019-02-19T11:16:32.358Z,21.40
2019-02-19T11:19:01.421Z,20.70
2019-02-19T11:21:30.522Z,23.03
2019-02-19T11:23:59.533Z,22.97
2019-02-19T11:26:28.596Z,22.27
2019-02-19T11:28:57.612Z,22.67
2019-02-19T11:31:26.635Z,22.10
2019-02-19T11:33:55.690Z,21.90
2019-02-19T11:36:24.713Z,23.00
2019-02-19T11:38:53.690Z,21.20
2019-02-19T11:41:22.714Z,22.30
2019-02-19T11:43:52.131Z,21.53
2019-02-19T11:46:21.141Z,21.90
2019-02-19T11:48:50.549Z,22.17
2019-02-19T11:51:19.568Z,21.20
2019-02-19T11:53:48.623Z,21.87
2019-02-19T11:56:18.035Z,21.00
2019-02-19T11:58:46.990Z,19.93
2019-02-19T12:01:16.013Z,21.27
2019-02-19T12:03:45.353Z,19.87
2019-02-19T12:06:14.617Z,20.07
2019-02-19T12:08:43.638Z,19.30
2019-02-19T12:11:12.987Z,20.93
2019-02-19T12:13:42.007Z,20.30
2019-02-19T12:16:11.053Z,18.87
2019-02-19T12:18:46.301Z,18.97
2019-02-19T12:21:11.166Z,20.63
2019-02-19T12:23:40.519Z,19.37
2019-02-19T12:26:09.543Z,17.83
2019-02-19T12:28:38.548Z,19.73
2019-02-19T12:31:07.568Z,19.50
2019-02-19T12:33:36.877Z,19.50
2019-02-19T12:36:05.934Z,18.90
2019-02-19T12:38:34.879Z,21.07
2019-02-19T12:41:03.941Z,19.00
2019-02-19T12:43:32.957Z,20.47
2019-02-19T12:46:01.935Z,20.13
2019-02-19T12:48:31.006Z,19.80
2019-02-19T12:51:00.052Z,19.83
2019-02-19T12:53:29.418Z,19.23
2019-02-19T12:55:58.479Z,19.27
2019-02-19T12:58:27.494Z,20.23
2019-02-19T13:00:56.556Z,17.20
2019-02-19T13:03:25.611Z,17.70
2019-02-19T13:05:54.667Z,18.10
2019-02-19T13:08:23.746Z,17.90
2019-02-19T13:10:52.695Z,17.60
2019-02-19T13:13:21.701Z,17.40
2019-02-19T13:15:50.676Z,18.00
2019-02-19T13:18:19.738Z,16.53
2019-02-19T13:20:48.807Z,17.80
2019-02-19T13:23:17.857Z,17.13
2019-02-19T13:25:46.884Z,17.17
2019-02-19T13:28:15.924Z,19.57
2019-02-19T13:30:44.985Z,16.83
2019-02-19T13:33:14.038Z,15.77
2019-02-19T13:35:43.045Z,15.67
2019-02-19T13:38:12.097Z,16.43
2019-02-19T13:40:41.143Z,17.40
2019-02-19T13:43:10.446Z,16.50
2019-02-19T13:45:39.497Z,16.60
2019-02-19T13:48:08.550Z,18.27
2019-02-19T13:50:37.940Z,16.40
2019-02-19T13:53:31.996Z,16.80
2019-02-19T13:56:02.440Z,17.10
2019-02-19T13:58:31.450Z,15.10
2019-02-19T14:01:00.505Z,16.73
2019-02-19T14:03:29.561Z,17.13
2019-02-19T14:05:58.587Z,17.17
2019-02-19T14:08:27.533Z,15.90
2019-02-19T14:10:56.581Z,17.20
2019-02-19T14:13:25.604Z,16.93
2019-02-19T14:16:04.830Z,15.77
2019-02-19T14:18:48.736Z,15.10
2019-02-19T14:21:35.917Z,16.40
2019-02-19T14:24:30.791Z,17.27
2019-02-19T14:27:24.814Z,16.50
2019-02-19T14:30:12.021Z,17.03
2019-02-19T14:33:06.560Z,17.70
2019-02-19T14:36:13.383Z,17.30
2019-02-19T14:39:05.497Z,16.57
2019-02-19T14:42:02.787Z,16.67
2019-02-19T14:44:59.611Z,17.60
2019-02-19T14:48:02.031Z,16.87
2019-02-19T14:50:52.935Z,16.67
2019-02-19T14:53:40.866Z,15.40
2019-02-19T14:56:28.891Z,16.20
2019-02-19T14:59:20.620Z,18.00
2019-02-19T15:02:08.616Z,17.40
2019-02-19T15:05:05.402Z,18.70
2019-02-19T15:08:02.583Z,17.63
2019-02-19T15:10:56.448Z,18.90
2019-02-19T15:13:47.640Z,16.83
2019-02-19T15:16:44.848Z,17.50
2019-02-19T15:19:39.469Z,19.70
2019-02-19T15:22:30.305Z,19.40
2019-02-19T15:25:24.622Z,19.73
2019-02-19T15:28:12.951Z,18.60
2019-02-19T15:30:59.602Z,18.20
2019-02-19T15:33:49.308Z,17.10
2019-02-19T15:36:34.287Z,17.93
2019-02-19T15:39:20.932Z,18.73
2019-02-19T15:42:08.963Z,18.67
2019-02-19T15:44:48.879Z,18.83
2019-02-19T15:47:39.677Z,18.90
2019-02-19T15:50:16.014Z,16.57
2019-02-19T15:52:56.105Z,17.63
2019-02-19T15:55:43.962Z,17.73
2019-02-19T15:58:30.654Z,19.50
2019-02-19T16:01:17.624Z,19.37
2019-02-19T16:04:01.204Z,16.80
2019-02-19T16:06:48.832Z,17.97
2019-02-19T16:09:35.638Z,18.30
2019-02-19T16:12:23.635Z,18.40
2019-02-19T16:15:12.239Z,18.13
2019-02-19T16:17:56.388Z,18.60
2019-02-19T16:20:53.708Z,21.10
2019-02-19T16:23:41.816Z,18.47
2019-02-19T16:26:38.341Z,17.57
2019-02-19T16:29:34.309Z,18.20
2019-02-19T16:32:28.483Z,16.80
2019-02-19T16:35:07.457Z,16.57
2019-02-19T16:37:47.099Z,14.40
2019-02-19T16:40:38.338Z,15.80
2019-02-19T16:43:25.095Z,15.80
2019-02-19T16:46:11.977Z,14.43
2019-02-19T16:48:48.936Z,13.63
2019-02-19T16:51:35.773Z,13.70
2019-02-19T16:54:26.971Z,12.63
2019-02-19T16:57:01.543Z,14.00
2019-02-19T16:59:50.515Z,12.40
2019-02-19T17:02:27.514Z,13.33
2019-02-19T17:05:34.294Z,12.10
2019-02-19T17:08:31.392Z,13.57
2019-02-19T17:11:10.633Z,13.33
2019-02-19T17:13:58.594Z,12.60
2019-02-19T17:16:36.654Z,13.70
2019-02-19T17:19:43.707Z,14.37
2019-02-19T17:22:40.654Z,14.57
2019-02-19T17:25:31.231Z,15.43
2019-02-19T17:28:37.944Z,15.00
2019-02-19T17:31:24.530Z,16.03
2019-02-19T17:34:11.731Z,18.27
2019-02-19T17:36:58.420Z,15.30
2019-02-19T17:40:05.129Z,18.33
2019-02-19T17:42:48.061Z,17.63
2019-02-19T17:45:38.758Z,17.47
2019-02-19T17:48:29.582Z,16.83
2019-02-19T17:51:29.730Z,17.80
2019-02-19T17:54:17.795Z,16.27
2019-02-19T17:57:11.192Z,17.67
2019-02-19T17:59:59.545Z,16.40
2019-02-19T18:02:36.625Z,15.20
2019-02-19T18:05:37.002Z,16.20
2019-02-19T18:08:16.351Z,17.37
2019-02-19T18:10:58.496Z,17.10
2019-02-19T18:13:41.497Z,16.93
2019-02-19T18:16:29.532Z,17.40
2019-02-19T18:18:58.594Z,16.43
2019-02-19T18:21:27.609Z,17.30
2019-02-19T18:23:56.902Z,16.90
2019-02-19T18:26:25.926Z,17.37
2019-02-19T18:28:54.920Z,16.77
2019-02-19T18:31:24.242Z,16.50
2019-02-19T18:33:53.246Z,17.20
2019-02-19T18:36:22.661Z,18.73
2019-02-19T18:38:51.703Z,18.40
2019-02-19T18:41:21.102Z,17.00
2019-02-19T18:43:50.441Z,16.03
2019-02-19T18:46:19.471Z,16.00
2019-02-19T18:48:48.476Z,18.63
2019-02-19T18:51:17.493Z,16.40
2019-02-19T18:53:47.076Z,14.00
2019-02-19T18:56:16.120Z,17.43
2019-02-19T18:58:45.137Z,16.07
2019-02-19T19:01:14.213Z,15.87
2019-02-19T19:03:43.578Z,16.40
2019-02-19T19:06:12.626Z,14.53
2019-02-19T19:08:41.646Z,15.97
2019-02-19T19:11:10.705Z,19.30
2019-02-19T19:13:40.110Z,15.93
2019-02-19T19:16:09.147Z,16.07
2019-02-19T19:18:38.155Z,16.00
2019-02-19T19:21:08.247Z,15.60
2019-02-19T19:23:37.490Z,15.70
2019-02-19T19:26:06.544Z,14.53
2019-02-19T19:28:35.554Z,14.63
2019-02-19T19:31:06.435Z,14.50
2019-02-19T19:33:35.366Z,15.67
2019-02-19T19:36:04.412Z,13.00
2019-02-19T19:38:33.441Z,15.87
2019-02-19T19:41:02.543Z,13.80
2019-02-19T19:43:31.633Z,14.40
2019-02-19T19:46:00.627Z,17.37
2019-02-19T19:48:29.969Z,15.60
2019-02-19T19:50:59.002Z,15.47
2019-02-19T19:53:28.043Z,14.90
2019-02-19T19:55:57.049Z,14.10
2019-02-19T19:58:26.079Z,15.43
2019-02-19T20:00:55.131Z,16.40
2019-02-19T20:03:24.144Z,16.80
2019-02-19T20:05:53.163Z,16.50
2019-02-19T20:08:22.146Z,16.10
2019-02-19T20:10:51.161Z,16.00
2019-02-19T20:13:20.251Z,16.50
2019-02-19T20:15:49.588Z,17.03
2019-02-19T20:18:18.601Z,16.40
2019-02-19T20:20:47.650Z,16.00
2019-02-19T20:23:16.677Z,16.20
2019-02-19T20:25:45.772Z,16.20
2019-02-19T20:28:15.383Z,15.27
2019-02-19T20:30:44.438Z,16.00
2019-02-19T20:33:13.527Z,15.93
2019-02-19T20:35:42.854Z,16.57
2019-02-19T20:38:12.139Z,16.10
2019-02-19T20:40:41.178Z,15.73
2019-02-19T20:43:10.211Z,14.90
2019-02-19T20:45:39.252Z,16.50
2019-02-19T20:48:08.335Z,15.17
2019-02-19T20:50:37.321Z,17.23
2019-02-19T20:53:06.326Z,16.70
2019-02-19T20:55:37.135Z,17.23
2019-02-19T20:58:06.391Z,16.77
2019-02-19T21:00:35.464Z,16.47
2019-02-19T21:03:04.517Z,15.80
2019-02-19T21:05:33.554Z,16.67
2019-02-19T21:08:02.632Z,15.20
2019-02-19T21:10:31.647Z,15.60
2019-02-19T21:13:00.701Z,14.83
2019-02-19T21:15:29.729Z,15.67
2019-02-19T21:17:58.781Z,14.30
2019-02-19T21:20:28.093Z,15.27
2019-02-19T21:22:57.161Z,15.13
2019-02-19T21:25:31.066Z,14.60
2019-02-19T21:27:56.933Z,13.60
2019-02-19T21:30:25.955Z,14.80
2019-02-19T21:32:54.911Z,14.93
2019-02-19T21:35:23.937Z,13.77
2019-02-19T21:37:52.955Z,14.77
2019-02-19T21:40:22.010Z,16.20
2019-02-19T21:42:51.018Z,14.20
2019-02-19T21:45:20.066Z,16.53
2019-02-19T21:47:49.117Z,13.37
2019-02-19T21:50:18.140Z,14.07
2019-02-19T21:52:47.573Z,14.57
2019-02-19T21:55:16.577Z,14.17
2019-02-19T21:57:45.627Z,14.03
2019-02-19T22:00:16.157Z,14.90
2019-02-19T22:02:45.220Z,15.90
2019-02-19T22:05:14.276Z,14.70
2019-02-19T22:07:43.289Z,14.70
2019-02-19T22:10:12.575Z,15.07
2019-02-19T22:12:41.591Z,15.00
2019-02-19T22:15:11.068Z,14.43
2019-02-19T22:17:40.100Z,13.83
2019-02-19T22:20:15.782Z,14.00
2019-02-19T22:22:44.810Z,15.50
2019-02-19T22:25:13.863Z,16.13
2019-02-19T22:27:42.939Z,16.80
2019-02-19T22:30:12.076Z,18.83
2019-02-19T22:32:41.098Z,16.93
2019-02-19T22:35:10.113Z,16.07
2019-02-19T22:37:39.276Z,19.47
2019-02-19T22:40:08.322Z,17.80
2019-02-19T22:42:37.364Z,19.03
2019-02-19T22:45:06.581Z,17.90
2019-02-19T22:47:35.603Z,21.70
2019-02-19T22:50:04.777Z,20.43
2019-02-19T22:52:33.786Z,18.80
2019-02-19T22:55:12.297Z,19.77
2019-02-19T22:57:41.326Z,18.90
2019-02-19T23:00:34.465Z,19.30
2019-02-19T23:03:03.581Z,18.30
2019-02-19T23:05:33.194Z,19.97
2019-02-19T23:08:02.266Z,20.97
2019-02-19T23:10:31.273Z,19.93
2019-02-19T23:13:00.298Z,17.60
2019-02-19T23:15:29.672Z,19.90
2019-02-19T23:17:58.732Z,17.60
2019-02-19T23:20:28.047Z,18.23
2019-02-19T23:22:57.075Z,17.70
2019-02-19T23:25:26.140Z,19.00
2019-02-19T23:27:55.114Z,18.70
2019-02-19T23:30:24.205Z,18.67
2019-02-19T23:32:53.233Z,19.03
2019-02-19T23:35:31.953Z,18.30
2019-02-19T23:38:00.930Z,18.53
2019-02-19T23:40:29.986Z,18.50
2019-02-19T23:42:58.992Z,18.13
2019-02-19T23:45:28.046Z,19.23
2019-02-19T23:47:57.061Z,18.10
2019-02-19T23:50:26.146Z,17.93
2019-02-19T23:52:55.184Z,18.20
2019-02-19T23:55:24.592Z,18.57
2019-02-19T23:57:53.649Z,18.00
